Weather at Deland Municipal Sidney H Taylor Field

Public forecast

Using degrees Fahrenheit for public forecast. Weather courtesy of forecast.io.

Current aviation weather report (METAR) for Deland Municipal Sidney H Taylor Field

2024/05/25 04:35 (retrieved 20 minutes ago)

KDED 250435Z AUTO 15004KT 10SM SCT070 25/20 A2996 RMK AO2 T02480195

Closest aviation forecast (TAF) to Deland Municipal Sidney H Taylor Field

Forecast is more than 6 hours old.

Closest forecast is Naval Station Mayport / Admiral David L McDonald Field, 79.8 nm (147.9 km) N.

2024/05/24 20:51 Ammendment (retrieved 8 hours ago)

TAF AMD KNRB 2420/2515 14010KT 9999 FEW055 SCT250 QNH2986INS FM250100 18006KT 9999 FEW040 BKN250 QNH2989INS FM251300 26005KT 9999 FEW035 SCT250 QNH2993INS LAST NO AMDS AFT 2422 NEXT 2807 AUTOMATED SENSOR METWATCH 2422 TIL 2809 TX32/2419Z TN23/2512Z AMD 2042 FN20019